Aeroporto :
LOGIN :

Iscrizione | Disclaimer

   EN    FR    IT 

 










Sommario :    VFR   VFR Marginale   IFR   IFR Intensivo   IFR Molto Intensivo
Visibilità : 
Base nubi : 
>= 8 km
>= 3000ft
5 / 8 km
1000 / 3000 ft
1500m / 5 km
500 / 1000 ft
800 / 1500m
200 / 500 ft
< 800m
< 200 ft
Simboli :   Temporali  Nebbia  Neve Forte  Precipitazioni Forti  Vento > 20 kt
SIGMETs :   Varie  Temporali  Ghiacco  Turbolenza  Onda orograficha  Ceneri Vulcaniche






- Altitudine del aeroporto : 359 ft
- Codice IATA : BVA


LFOB - Beauvais

ULTIMO METAR :
  • 151330Z AUTO 24004KT 210V270 6000 RA VCTS ///CB 20/17 Q1009 TEMPO VRB15G25KT 2000 TSRAGS

METARs OBSOLETI :
  • 151300Z AUTO 22006KT 9999 ///CB 22/15 Q1009 TEMPO VRB15G25KT 2000 TSRAGS
  • 151230Z AUTO 17005KT 130V210 9999 ///CB 23/15 Q1008 TEMPO VRB15G25KT 2000 TSRAGS
  • 151200Z AUTO 14009KT 9999 ///TCU 23/15 Q1008 TEMPO VRB15G25KT 2000 TSRAGS BKN025CB
  • 151130Z AUTO 15005KT 9999 -RA FEW037 BKN100 BKN130 24/14 Q1008 TEMPO VRB15G25KT 2000 TSRAGS BKN025CB
  • 151100Z AUTO 16006KT 090V210 9999 ///TCU 24/13 Q1009 TEMPO VRB15G25KT 2000 TSRAGS BKN025CB
  • 151030Z AUTO 11005KT 060V180 CAVOK 25/15 Q1009 TEMPO VRB15G25KT 2000 TSRAGS BKN025CB
  • 151000Z AUTO 11009KT CAVOK 24/14 Q1009 TEMPO 4000 SHRA BKN030TCU
  • 150930Z AUTO 10009KT CAVOK 23/14 Q1009 TEMPO 4000 SHRA BKN030TCU
  • 150900Z AUTO 14006KT 100V180 CAVOK 22/13 Q1010 NOSIG

TAF TAF LFOB
Valido dal 15 a 12 ore il 16 a 12 ore UTC


151100Z 1512/1612 14008KT CAVOK
TEMPO 1512/1522 4000 SHRA BKN030TCU
PROB40
TEMPO 1512/1520 VRB15G25KT 2000 TSRAGS BKN025CB
BECMG 1522/1523 22012KT
ATIS : +33 3 44 11 49 28



MetMap, La meteo Aeronautica in un colpo d'occhio ! - Copyright ORBIFLY Dicembre 2007 - Disclaimer

ORBIFLY MET'MAP TEAM :

Programmazione e sviluppo : Alexandra Zaïnal
Concezione : Baudouin d'Aumeries
Supporto tecnico e logistico : Manuel Goepfert
Aiuto : Marc-Olivier Méhu
Aiuto per la traduzione : Arnaldo La Scala




FONTI E CREDITI :

   NOAA